Time;durP1;ratioP1;P1;durP2;ratioP2;P2;SDS_P1;SDS_P2;PMS_P1;PMS_P2;Temp;Humidity;BMP_temperature;BMP_pressure;BME280_temperature;BME280_humidity;BME280_pressure;Samples;Min_cycle;Max_cycle;Signal;HPM_P1;HPM_P2
2021/12/23 00:00:21;;;;;;;;;;;;;;;;;;5114525;28;20022;-85
2021/12/23 00:02:48;;;;;;;;;;;;;;;;;;5114677;28;20048;-85
2021/12/23 00:05:15;;;;;;;;;;;;;;;;;;5114829;28;19998;-85
2021/12/23 00:07:42;;;;;;;;;;;;;;;;;;5114099;28;20040;-85
2021/12/23 00:10:09;;;;;;;;;;;;;;;;;;5114558;28;19967;-85
2021/12/23 00:12:36;;;;;;;;;;;;;;;;;;5114307;28;20030;-85
2021/12/23 00:15:04;;;;;;;;;;;;;;;;;;5114397;28;19992;-85
2021/12/23 00:17:54;;;;;;;;;;;;;;;;;;5114252;28;20371;-85
2021/12/23 00:26:02;;;;;;;;;;;;;;;;;;5091873;28;19938;-85
2021/12/23 00:28:29;;;;;;;;;;;;;;;;;;5108070;28;19924;-85
2021/12/23 00:30:56;;;;;;;;;;;;;;;;;;5113719;28;20010;-85
2021/12/23 00:33:23;;;;;;;;;;;;;;;;;;5114136;28;19974;-84
2021/12/23 00:35:50;;;;;;;;;;;;;;;;;;5114005;28;19950;-85
2021/12/23 00:38:22;;;;;;;;;;;;;;;;;;5114063;28;19977;-85
2021/12/23 00:40:49;;;;;;;;;;;;;;;;;;5114021;28;20382;-85
2021/12/23 00:43:16;;;;;;;;;;;;;;;;;;5114040;28;19942;-84
2021/12/23 00:45:44;;;;;;;;;;;;;;;;;;5113897;28;20380;-85
2021/12/23 00:48:11;;;;;;;;;;;;;;;;;;5114070;28;20007;-85
2021/12/23 00:50:38;;;;;;;;;;;;;;;;;;5113995;28;19924;-85
2021/12/23 00:53:08;;;;;;;;;;;;;;;;;;5113903;28;20008;-85
2021/12/23 00:55:35;;;;;;;;;;;;;;;;;;5120963;27;19949;-85
2021/12/23 00:58:02;;;;;;;;;;;;;;;;;;5127331;27;20015;-85
2021/12/23 01:00:29;;;;;;;;;;;;;;;;;;5118049;28;20011;-85
2021/12/23 01:02:59;;;;;;;;;;;;;;;;;;5117997;28;19962;-85
2021/12/23 01:05:26;;;;;;;;;;;;;;;;;;5118135;28;19996;-85
2021/12/23 01:07:53;;;;;;;;;;;;;;;;;;5117925;28;20029;-85
2021/12/23 01:10:20;;;;;;;;;;;;;;;;;;5117098;28;20010;-85
2021/12/23 01:12:51;;;;;;;;;;;;;;;;;;5115544;28;20492;-84
2021/12/23 01:15:38;;;;;;;;;;;;;;;;;;5115949;28;19924;-84
2021/12/23 01:18:09;;;;;;;;;;;;;;;;;;5115509;28;19985;-85
2021/12/23 01:20:36;;;;;;;;;;;;;;;;;;5118864;28;19924;-84
2021/12/23 01:23:03;;;;;;;;;;;;;;;;;;5116252;28;19924;-84
2021/12/23 01:25:30;;;;;;;;;;;;;;;;;;5117009;28;20019;-85
2021/12/23 01:27:57;;;;;;;;;;;;;;;;;;5117573;28;19994;-85
2021/12/23 01:30:24;;;;;;;;;;;;;;;;;;5118203;28;20389;-85
2021/12/23 01:32:51;;;;;;;;;;;;;;;;;;5118320;28;20049;-85
2021/12/23 01:35:18;;;;;;;;;;;;;;;;;;5118175;28;20014;-85
2021/12/23 01:37:45;;;;;;;;;;;;;;;;;;5117350;28;20510;-84
2021/12/23 01:40:12;;;;;;;;;;;;;;;;;;5117561;28;20040;-85
2021/12/23 01:42:39;;;;;;;;;;;;;;;;;;5117222;28;20439;-85
2021/12/23 01:45:06;;;;;;;;;;;;;;;;;;5117547;28;20012;-84
2021/12/23 01:47:33;;;;;;;;;;;;;;;;;;5117443;28;20006;-85
2021/12/23 01:50:00;;;;;;;;;;;;;;;;;;5117310;28;20041;-85
2021/12/23 01:52:27;;;;;;;;;;;;;;;;;;5117406;28;20007;-84
2021/12/23 01:54:55;;;;;;;;;;;;;;;;;;5117129;28;20438;-85
2021/12/23 01:57:22;;;;;;;;;;;;;;;;;;5117051;28;19928;-84
2021/12/23 01:59:49;;;;;;;;;;;;;;;;;;5117278;28;20021;-85
2021/12/23 02:02:16;;;;;;;;;;;;;;;;;;5117063;28;20019;-84
2021/12/23 02:04:43;;;;;;;;;;;;;;;;;;5117048;28;20025;-84
2021/12/23 02:07:10;;;;;;;;;;;;;;;;;;5116760;28;20435;-84
2021/12/23 02:09:37;;;;;;;;;;;;;;;;;;5116856;28;20032;-85
2021/12/23 02:12:04;;;;;;;;;;;;;;;;;;5116740;28;19998;-84
2021/12/23 02:14:31;;;;;;;;;;;;;;;;;;5116908;28;20044;-85
2021/12/23 02:16:58;;;;;;;;;;;;;;;;;;5116699;28;20014;-85
2021/12/23 02:19:25;;;;;;;;;;;;;;;;;;5116637;28;20432;-85
2021/12/23 02:21:52;;;;;;;;;;;;;;;;;;5116713;28;20033;-84
2021/12/23 02:24:19;;;;;;;;;;;;;;;;;;5116779;28;20014;-84
2021/12/23 02:26:46;;;;;;;;;;;;;;;;;;5116397;28;20015;-84
2021/12/23 02:29:13;;;;;;;;;;;;;;;;;;5116520;28;20037;-85
2021/12/23 02:31:40;;;;;;;;;;;;;;;;;;5116530;28;20115;-84
2021/12/23 02:34:07;;;;;;;;;;;;;;;;;;5116379;28;20039;-84
2021/12/23 02:36:34;;;;;;;;;;;;;;;;;;5116272;28;20032;-85
2021/12/23 02:39:01;;;;;;;;;;;;;;;;;;5116272;28;20445;-85
2021/12/23 02:41:28;;;;;;;;;;;;;;;;;;5116357;28;19981;-84
2021/12/23 02:43:55;;;;;;;;;;;;;;;;;;5116384;28;20014;-84
2021/12/23 02:46:22;;;;;;;;;;;;;;;;;;5116179;28;20006;-84
2021/12/23 02:48:49;;;;;;;;;;;;;;;;;;5116118;28;20367;-84
2021/12/23 02:51:16;;;;;;;;;;;;;;;;;;5115992;28;20015;-85
2021/12/23 02:53:43;;;;;;;;;;;;;;;;;;5116214;28;20019;-85
2021/12/23 02:56:10;;;;;;;;;;;;;;;;;;5115937;28;20438;-84
2021/12/23 02:58:37;;;;;;;;;;;;;;;;;;5115816;28;20023;-85
2021/12/23 03:01:04;;;;;;;;;;;;;;;;;;5115948;28;20018;-85
2021/12/23 03:03:31;;;;;;;;;;;;;;;;;;5115827;28;20014;-85
2021/12/23 03:05:58;;;;;;;;;;;;;;;;;;5115727;28;20022;-85
2021/12/23 03:08:25;;;;;;;;;;;;;;;;;;5115690;28;20014;-85
2021/12/23 03:10:52;;;;;;;;;;;;;;;;;;5115941;28;20019;-84
2021/12/23 03:13:19;;;;;;;;;;;;;;;;;;5115680;28;20431;-85
2021/12/23 03:15:46;;;;;;;;;;;;;;;;;;5116542;28;19942;-85
2021/12/23 03:18:13;;;;;;;;;;;;;;;;;;5114970;28;20386;-85
2021/12/23 03:20:40;;;;;;;;;;;;;;;;;;5115448;28;20347;-85
2021/12/23 03:23:07;;;;;;;;;;;;;;;;;;5115306;28;20036;-85
2021/12/23 03:25:34;;;;;;;;;;;;;;;;;;5114782;28;20037;-85
2021/12/23 03:28:01;;;;;;;;;;;;;;;;;;5115243;28;20024;-85
2021/12/23 03:30:28;;;;;;;;;;;;;;;;;;5115408;28;20006;-85
2021/12/23 03:32:55;;;;;;;;;;;;;;;;;;5115100;28;20357;-85
2021/12/23 03:35:22;;;;;;;;;;;;;;;;;;5115121;28;20002;-84
2021/12/23 03:37:49;;;;;;;;;;;;;;;;;;5115242;28;20060;-85
2021/12/23 03:40:16;;;;;;;;;;;;;;;;;;5115049;28;20038;-85
2021/12/23 03:42:43;;;;;;;;;;;;;;;;;;5115193;28;20002;-85
2021/12/23 03:45:10;;;;;;;;;;;;;;;;;;5114949;28;20433;-84
2021/12/23 03:47:37;;;;;;;;;;;;;;;;;;5114655;28;20015;-85
2021/12/23 03:50:04;;;;;;;;;;;;;;;;;;5116288;28;20005;-85
2021/12/23 03:52:31;;;;;;;;;;;;;;;;;;5116534;28;20011;-84
2021/12/23 03:54:58;;;;;;;;;;;;;;;;;;5114927;28;20021;-85
2021/12/23 03:57:25;;;;;;;;;;;;;;;;;;5114663;28;20466;-84
2021/12/23 03:59:52;;;;;;;;;;;;;;;;;;5114740;28;20018;-85
2021/12/23 04:02:19;;;;;;;;;;;;;;;;;;5114513;28;20015;-84
2021/12/23 04:04:46;;;;;;;;;;;;;;;;;;5114564;28;20032;-84
2021/12/23 04:07:14;;;;;;;;;;;;;;;;;;5114746;28;19999;-85
2021/12/23 04:09:41;;;;;;;;;;;;;;;;;;5114653;28;19927;-84
2021/12/23 04:12:08;;;;;;;;;;;;;;;;;;5114357;28;20052;-85
2021/12/23 04:14:35;;;;;;;;;;;;;;;;;;5114415;28;19959;-85
2021/12/23 04:17:02;;;;;;;;;;;;;;;;;;5114261;28;20362;-85
2021/12/23 04:19:31;;;;;;;;;;;;;;;;;;5114518;28;20029;-85
2021/12/23 04:21:58;;;;;;;;;;;;;;;;;;5114484;28;19924;-84
2021/12/23 04:24:25;;;;;;;;;;;;;;;;;;5114303;28;20038;-84
2021/12/23 04:26:52;;;;;;;;;;;;;;;;;;5114171;28;20037;-85
2021/12/23 04:29:19;;;;;;;;;;;;;;;;;;5113310;28;20010;-85
2021/12/23 04:31:46;;;;;;;;;;;;;;;;;;5114100;28;20454;-85
2021/12/23 04:34:13;;;;;;;;;;;;;;;;;;5114218;28;20026;-85
2021/12/23 04:36:40;;;;;;;;;;;;;;;;;;5114239;28;20029;-85
2021/12/23 04:39:07;;;;;;;;;;;;;;;;;;5114009;28;20018;-85
2021/12/23 04:41:34;;;;;;;;;;;;;;;;;;5113973;28;19970;-86
2021/12/23 04:44:01;;;;;;;;;;;;;;;;;;5114036;28;19942;-85
2021/12/23 04:46:28;;;;;;;;;;;;;;;;;;5113902;28;20444;-86
2021/12/23 04:48:55;;;;;;;;;;;;;;;;;;5114090;28;19997;-85
2021/12/23 04:51:22;;;;;;;;;;;;;;;;;;5114103;28;19942;-85
2021/12/23 04:53:49;;;;;;;;;;;;;;;;;;5114334;28;20019;-85
2021/12/23 04:56:16;;;;;;;;;;;;;;;;;;5114386;28;20033;-85
2021/12/23 04:58:43;;;;;;;;;;;;;;;;;;5116549;28;20014;-85
2021/12/23 05:01:19;;;;;;;;;;;;;;;;;;5114228;28;20014;-85
2021/12/23 05:03:47;;;;;;;;;;;;;;;;;;5114032;28;19927;-86
2021/12/23 05:06:14;;;;;;;;;;;;;;;;;;5113902;28;19923;-85
2021/12/23 05:08:41;;;;;;;;;;;;;;;;;;5113819;28;20045;-85
2021/12/23 05:11:08;;;;;;;;;;;;;;;;;;5113671;28;20010;-86
2021/12/23 05:13:35;;;;;;;;;;;;;;;;;;5113525;28;20350;-86
2021/12/23 05:16:02;;;;;;;;;;;;;;;;;;5113864;28;20002;-86
2021/12/23 05:18:29;;;;;;;;;;;;;;;;;;5113827;28;19924;-85
2021/12/23 05:20:56;;;;;;;;;;;;;;;;;;5113707;28;20030;-85
2021/12/23 05:23:23;;;;;;;;;;;;;;;;;;5113522;28;20430;-85
2021/12/23 05:25:50;;;;;;;;;;;;;;;;;;5113847;28;20015;-86
2021/12/23 05:28:17;;;;;;;;;;;;;;;;;;5113706;28;20007;-85
2021/12/23 05:30:44;;;;;;;;;;;;;;;;;;5113586;28;20041;-86
2021/12/23 05:33:11;;;;;;;;;;;;;;;;;;5113587;28;20020;-86
2021/12/23 05:35:38;;;;;;;;;;;;;;;;;;5113531;28;20380;-85
2021/12/23 05:38:05;;;;;;;;;;;;;;;;;;5113432;28;19954;-85
2021/12/23 05:40:33;;;;;;;;;;;;;;;;;;5114420;28;20015;-85
2021/12/23 05:43:00;;;;;;;;;;;;;;;;;;5117350;28;19977;-85
2021/12/23 05:45:27;;;;;;;;;;;;;;;;;;5117652;28;19942;-85
2021/12/23 05:47:54;;;;;;;;;;;;;;;;;;5117270;28;20394;-85
2021/12/23 05:50:22;;;;;;;;;;;;;;;;;;5117440;28;19924;-85
2021/12/23 05:52:49;;;;;;;;;;;;;;;;;;5117202;28;19964;-85
2021/12/23 05:55:16;;;;;;;;;;;;;;;;;;5117347;28;20010;-85
2021/12/23 05:57:43;;;;;;;;;;;;;;;;;;5117081;28;20376;-85
2021/12/23 06:00:10;;;;;;;;;;;;;;;;;;5116983;28;20019;-85
2021/12/23 06:02:37;;;;;;;;;;;;;;;;;;5117089;28;20027;-85
2021/12/23 06:05:04;;;;;;;;;;;;;;;;;;5116804;28;20002;-84
2021/12/23 06:07:31;;;;;;;;;;;;;;;;;;5117141;28;20041;-85
2021/12/23 06:09:58;;;;;;;;;;;;;;;;;;5116975;28;19982;-85
2021/12/23 06:12:26;;;;;;;;;;;;;;;;;;5116718;28;19935;-84
2021/12/23 06:14:53;;;;;;;;;;;;;;;;;;5116788;28;20011;-85
2021/12/23 06:17:20;;;;;;;;;;;;;;;;;;5116666;28;20006;-85
2021/12/23 06:19:47;;;;;;;;;;;;;;;;;;5116645;28;20018;-85
2021/12/23 06:22:14;;;;;;;;;;;;;;;;;;5116648;28;20327;-85
2021/12/23 06:24:43;;;;;;;;;;;;;;;;;;5116629;28;20029;-84
2021/12/23 06:27:10;;;;;;;;;;;;;;;;;;5116584;28;19924;-85
2021/12/23 06:29:37;;;;;;;;;;;;;;;;;;5115731;28;20015;-85
2021/12/23 06:32:04;;;;;;;;;;;;;;;;;;5116366;28;20006;-85
2021/12/23 06:34:32;;;;;;;;;;;;;;;;;;5116414;28;20037;-84
2021/12/23 06:36:59;;;;;;;;;;;;;;;;;;5117195;28;19999;-84
2021/12/23 06:39:26;;;;;;;;;;;;;;;;;;5116983;28;20059;-84
2021/12/23 06:41:53;;;;;;;;;;;;;;;;;;5117555;28;19998;-84
2021/12/23 06:44:20;;;;;;;;;;;;;;;;;;5116501;28;20041;-84
2021/12/23 06:46:47;;;;;;;;;;;;;;;;;;5116078;28;19997;-84
2021/12/23 06:49:14;;;;;;;;;;;;;;;;;;5111622;28;20014;-84
2021/12/23 06:51:41;;;;;;;;;;;;;;;;;;5103975;28;20022;-83
2021/12/23 06:54:08;;;;;;;;;;;;;;;;;;5096022;28;20019;-83
2021/12/23 06:56:35;;;;;;;;;;;;;;;;;;5115254;28;19987;-83
2021/12/23 06:59:02;;;;;;;;;;;;;;;;;;5114793;28;19979;-83
2021/12/23 07:01:29;;;;;;;;;;;;;;;;;;5115732;28;19971;-83
2021/12/23 07:04:06;;;;;;;;;;;;;;;;;;5115877;28;20049;-84
2021/12/23 07:06:35;;;;;;;;;;;;;;;;;;5115923;28;19949;-84
2021/12/23 07:09:03;;;;;;;;;;;;;;;;;;5111674;28;19942;-84
2021/12/23 07:11:30;;;;;;;;;;;;;;;;;;5109296;28;19931;-84
2021/12/23 07:13:57;;;;;;;;;;;;;;;;;;5095148;28;20015;-83
2021/12/23 07:16:24;;;;;;;;;;;;;;;;;;5095111;28;19996;-84
2021/12/23 07:18:51;;;;;;;;;;;;;;;;;;5093687;28;20009;-84
2021/12/23 07:21:18;;;;;;;;;;;;;;;;;;5104302;28;20010;-84
2021/12/23 07:23:45;;;;;;;;;;;;;;;;;;5115273;28;20023;-84
2021/12/23 07:26:12;;;;;;;;;;;;;;;;;;5115192;28;20014;-84
2021/12/23 07:28:39;;;;;;;;;;;;;;;;;;5115194;28;20014;-83
2021/12/23 07:31:06;;;;;;;;;;;;;;;;;;5115227;28;19999;-84
2021/12/23 07:33:34;;;;;;;;;;;;;;;;;;5115085;28;20438;-84
2021/12/23 07:36:01;;;;;;;;;;;;;;;;;;5110626;28;19934;-84
2021/12/23 07:38:28;;;;;;;;;;;;;;;;;;5113279;28;20020;-83
2021/12/23 07:40:55;;;;;;;;;;;;;;;;;;5114914;28;20352;-85
2021/12/23 07:43:43;;;;;;;;;;;;;;;;;;5115041;28;20041;-85
2021/12/23 07:46:10;;;;;;;;;;;;;;;;;;5114921;28;20014;-84
2021/12/23 07:48:37;;;;;;;;;;;;;;;;;;5114806;28;20300;-84
2021/12/23 07:51:04;;;;;;;;;;;;;;;;;;5114220;28;20052;-85
2021/12/23 07:53:31;;;;;;;;;;;;;;;;;;5113159;28;20123;-85
2021/12/23 07:55:58;;;;;;;;;;;;;;;;;;5114852;28;20002;-85
2021/12/23 07:58:25;;;;;;;;;;;;;;;;;;5114755;28;19958;-85
2021/12/23 08:00:52;;;;;;;;;;;;;;;;;;5114719;28;20375;-84
2021/12/23 08:03:20;;;;;;;;;;;;;;;;;;5107714;28;19974;-84
2021/12/23 08:05:47;;;;;;;;;;;;;;;;;;5104141;28;19987;-84
2021/12/23 08:08:14;;;;;;;;;;;;;;;;;;5109738;28;20057;-84
2021/12/23 08:10:41;;;;;;;;;;;;;;;;;;5102626;28;20293;-85
2021/12/23 08:13:08;;;;;;;;;;;;;;;;;;5114108;28;20064;-84
2021/12/23 08:15:35;;;;;;;;;;;;;;;;;;5113476;28;19923;-84
2021/12/23 08:18:03;;;;;;;;;;;;;;;;;;5113811;28;19976;-85
2021/12/23 08:20:30;;;;;;;;;;;;;;;;;;5114527;28;20014;-84
2021/12/23 08:22:57;;;;;;;;;;;;;;;;;;5115565;28;19974;-84
2021/12/23 08:25:24;;;;;;;;;;;;;;;;;;5116065;28;20414;-84
2021/12/23 08:27:51;;;;;;;;;;;;;;;;;;5114371;28;20007;-85
2021/12/23 08:30:18;;;;;;;;;;;;;;;;;;5112690;28;20121;-84
2021/12/23 08:32:45;;;;;;;;;;;;;;;;;;5112777;28;19924;-84
2021/12/23 08:35:12;;;;;;;;;;;;;;;;;;5113604;28;19928;-85
2021/12/23 08:37:39;;;;;;;;;;;;;;;;;;5113844;28;20427;-85
2021/12/23 08:40:07;;;;;;;;;;;;;;;;;;5116040;28;19924;-84
2021/12/23 08:42:34;;;;;;;;;;;;;;;;;;5114021;28;20379;-84
2021/12/23 08:45:03;;;;;;;;;;;;;;;;;;5114012;28;20011;-85
2021/12/23 08:47:30;;;;;;;;;;;;;;;;;;5113750;28;19923;-84
2021/12/23 08:49:57;;;;;;;;;;;;;;;;;;5113335;28;20399;-84
2021/12/23 08:52:24;;;;;;;;;;;;;;;;;;5113629;28;20007;-84
2021/12/23 08:54:51;;;;;;;;;;;;;;;;;;5113170;28;20006;-85
2021/12/23 08:57:18;;;;;;;;;;;;;;;;;;5108931;28;20019;-84
2021/12/23 08:59:46;;;;;;;;;;;;;;;;;;5099303;28;20014;-84
2021/12/23 09:02:13;;;;;;;;;;;;;;;;;;5093117;28;20378;-85
2021/12/23 09:04:41;;;;;;;;;;;;;;;;;;5108684;28;20037;-83
2021/12/23 09:07:09;;;;;;;;;;;;;;;;;;5112442;28;19928;-84
2021/12/23 09:09:37;;;;;;;;;;;;;;;;;;5113491;28;20288;-84
2021/12/23 09:12:04;;;;;;;;;;;;;;;;;;5113434;28;20015;-84
2021/12/23 09:14:31;;;;;;;;;;;;;;;;;;5113678;28;19963;-84
2021/12/23 09:16:58;;;;;;;;;;;;;;;;;;5116784;28;20366;-85
2021/12/23 09:19:25;;;;;;;;;;;;;;;;;;5117787;28;20050;-85
2021/12/23 09:21:52;;;;;;;;;;;;;;;;;;5115476;28;20009;-84
2021/12/23 09:24:19;;;;;;;;;;;;;;;;;;5107104;28;19970;-84
2021/12/23 09:26:52;;;;;;;;;;;;;;;;;;5117649;28;19942;-85
2021/12/23 09:32:40;;;;;;;;;;;;;;;;;;5116343;28;19931;-85
2021/12/23 09:34:51;;;;;;;;;;;;;;;;;;5117606;28;19918;-83
2021/12/23 09:37:18;;;;;;;;;;;;;;;;;;5117408;28;20014;-84
2021/12/23 09:39:45;;;;;;;;;;;;;;;;;;5116895;28;19924;-84
2021/12/23 09:42:12;;;;;;;;;;;;;;;;;;5117459;28;19955;-84
2021/12/23 09:44:39;;;;;;;;;;;;;;;;;;5115704;28;19927;-84
2021/12/23 09:47:06;;;;;;;;;;;;;;;;;;5117236;28;20014;-81
2021/12/23 09:49:33;;;;;;;;;;;;;;;;;;5101783;28;20030;-85
2021/12/23 09:52:00;;;;;;;;;;;;;;;;;;5097082;28;19967;-84
2021/12/23 09:54:27;;;;;;;;;;;;;;;;;;5097826;28;20030;-85
2021/12/23 09:56:54;;;;;;;;;;;;;;;;;;5096904;28;19999;-85
2021/12/23 09:59:26;;;;;;;;;;;;;;;;;;5096486;28;19965;-84
2021/12/23 10:01:53;;;;;;;;;;;;;;;;;;5097249;28;19944;-84
2021/12/23 10:04:20;;;;;;;;;;;;;;;;;;5104853;28;20029;-86
2021/12/23 10:06:50;;;;;;;;;;;;;;;;;;5116968;28;19982;-84
2021/12/23 10:09:31;;;;;;;;;;;;;;;;;;5116698;28;19923;-84
2021/12/23 10:12:38;;;;;;;;;;;;;;;;;;5108806;28;20014;-85
2021/12/23 10:31:21;;;;;;;;;;;;;;;;;;5115852;27;19931;-85
2021/12/23 10:37:04;;;;;;;;;;;;;;;;;;5115446;28;19927;-83
2021/12/23 10:39:21;;;;;;;;;;;;;;;;;;5114896;28;19992;-82
2021/12/23 10:41:48;;;;;;;;;;;;;;;;;;5115319;28;20380;-83
2021/12/23 10:44:15;;;;;;;;;;;;;;;;;;5115397;28;20010;-82
2021/12/23 10:46:42;;;;;;;;;;;;;;;;;;5115731;28;20022;-83
2021/12/23 10:49:23;;;;;;;;;;;;;;;;;;5115030;28;19939;-83
2021/12/23 10:51:58;;;;;;;;;;;;;;;;;;5114826;28;19993;-83
2021/12/23 10:58:00;;;;;;;;;;;;;;;;;;5115535;28;19944;-82
2021/12/23 11:00:06;;;;;;;;;;;;;;;;;;5113834;28;20325;-83
2021/12/23 11:02:36;;;;;;;;;;;;;;;;;;5115769;28;20025;-84
2021/12/23 11:05:10;;;;;;;;;;;;;;;;;;5114361;28;20371;-83
2021/12/23 11:07:38;;;;;;;;;;;;;;;;;;5115449;28;19938;-83
2021/12/23 11:10:16;;;;;;;;;;;;;;;;;;5114879;28;20366;-84
2021/12/23 11:29:55;;;;;;;;;;;;;;;;;;5115364;28;20007;-84
2021/12/23 11:37:46;;;;;;;;;;;;;;;;;;5112525;28;19945;-83
2021/12/23 11:40:26;;;;;;;;;;;;;;;;;;5114489;28;20375;-84
2021/12/23 11:45:39;;;;;;;;;;;;;;;;;;5110666;28;20013;-84
2021/12/23 11:48:08;;;;;;;;;;;;;;;;;;5114265;28;19942;-84
2021/12/23 11:50:42;;;;;;;;;;;;;;;;;;5114897;28;19991;-84
2021/12/23 11:53:09;;;;;;;;;;;;;;;;;;5115517;28;19937;-83
2021/12/23 11:55:36;;;;;;;;;;;;;;;;;;5115514;27;19969;-83
2021/12/23 11:58:03;;;;;;;;;;;;;;;;;;5113259;28;20355;-84
2021/12/23 12:00:41;;;;;;;;;;;;;;;;;;5113735;28;20033;-83
2021/12/23 12:03:08;;;;;;;;;;;;;;;;;;5113915;28;19950;-83
2021/12/23 12:05:35;;;;;;;;;;;;;;;;;;5114308;28;19955;-83
2021/12/23 12:08:03;;;;;;;;;;;;;;;;;;5114433;28;20049;-84
2021/12/23 12:10:32;;;;;;;;;;;;;;;;;;5113586;28;20008;-83
2021/12/23 12:12:59;;;;;;;;;;;;;;;;;;5113550;28;19931;-84
2021/12/23 12:15:26;;;;;;;;;;;;;;;;;;5113932;28;20034;-83
2021/12/23 12:17:53;;;;;;;;;;;;;;;;;;5113769;28;19927;-83
2021/12/23 12:20:24;;;;;;;;;;;;;;;;;;5113688;28;20312;-83
2021/12/23 12:22:51;;;;;;;;;;;;;;;;;;5113659;28;20283;-83
2021/12/23 12:25:18;;;;;;;;;;;;;;;;;;5101583;28;19941;-83
2021/12/23 12:27:45;;;;;;;;;;;;;;;;;;5111560;28;20378;-82
2021/12/23 12:30:14;;;;;;;;;;;;;;;;;;5113021;28;20040;-83
2021/12/23 12:32:41;;;;;;;;;;;;;;;;;;5113704;28;19984;-82
2021/12/23 12:35:08;;;;;;;;;;;;;;;;;;5114308;28;19927;-83
2021/12/23 12:37:35;;;;;;;;;;;;;;;;;;5113150;28;20001;-83
2021/12/23 12:40:02;;;;;;;;;;;;;;;;;;5113987;28;20026;-82
2021/12/23 12:42:30;;;;;;;;;;;;;;;;;;5113086;28;20029;-82
2021/12/23 12:45:03;;;;;;;;;;;;;;;;;;5113281;28;19986;-82
2021/12/23 12:47:37;;;;;;;;;;;;;;;;;;5114129;28;19938;-83
2021/12/23 12:50:04;;;;;;;;;;;;;;;;;;5112902;28;20453;-82
2021/12/23 12:52:31;;;;;;;;;;;;;;;;;;5105820;28;20049;-82
2021/12/23 12:54:58;;;;;;;;;;;;;;;;;;5102611;28;19991;-82
2021/12/23 12:57:25;;;;;;;;;;;;;;;;;;5116367;28;19979;-84
2021/12/23 12:59:52;;;;;;;;;;;;;;;;;;5107334;28;20539;-81
2021/12/23 13:02:19;;;;;;;;;;;;;;;;;;5112434;28;19974;-81
2021/12/23 13:04:46;;;;;;;;;;;;;;;;;;5112158;28;20022;-83
2021/12/23 13:07:13;;;;;;;;;;;;;;;;;;5112865;28;20445;-83
2021/12/23 13:09:40;;;;;;;;;;;;;;;;;;5113535;28;20028;-82
2021/12/23 13:12:07;;;;;;;;;;;;;;;;;;5112853;28;20281;-83
2021/12/23 13:14:34;;;;;;;;;;;;;;;;;;5113555;28;20397;-82
2021/12/23 13:17:01;;;;;;;;;;;;;;;;;;5112947;28;20033;-82
2021/12/23 13:19:28;;;;;;;;;;;;;;;;;;5113690;28;20014;-82
2021/12/23 13:21:56;;;;;;;;;;;;;;;;;;5113128;28;20428;-82
2021/12/23 13:24:23;;;;;;;;;;;;;;;;;;5113777;28;19943;-82
2021/12/23 13:26:50;;;;;;;;;;;;;;;;;;5113282;28;19975;-82
2021/12/23 13:29:17;;;;;;;;;;;;;;;;;;5113758;28;19986;-82
2021/12/23 13:31:45;;;;;;;;;;;;;;;;;;5113687;28;19985;-82
2021/12/23 13:34:12;;;;;;;;;;;;;;;;;;5113530;28;19942;-83
2021/12/23 13:36:39;;;;;;;;;;;;;;;;;;5112543;28;20046;-80
2021/12/23 13:39:06;;;;;;;;;;;;;;;;;;5113499;28;20007;-82
2021/12/23 13:41:36;;;;;;;;;;;;;;;;;;5113022;28;20002;-81
2021/12/23 13:44:03;;;;;;;;;;;;;;;;;;5106670;28;20397;-80
2021/12/23 13:46:32;;;;;;;;;;;;;;;;;;5112751;28;20459;-80
2021/12/23 13:48:59;;;;;;;;;;;;;;;;;;5112641;28;20431;-81
2021/12/23 13:51:27;;;;;;;;;;;;;;;;;;5113104;28;19978;-82
2021/12/23 13:53:54;;;;;;;;;;;;;;;;;;5112908;28;20005;-80
2021/12/23 13:56:21;;;;;;;;;;;;;;;;;;5112642;28;20015;-82
2021/12/23 13:58:48;;;;;;;;;;;;;;;;;;5111939;28;20002;-82
2021/12/23 14:01:15;;;;;;;;;;;;;;;;;;5113401;28;20053;-81
2021/12/23 14:03:42;;;;;;;;;;;;;;;;;;5114653;28;19975;-80
2021/12/23 14:06:09;;;;;;;;;;;;;;;;;;5116015;28;20028;-83
2021/12/23 14:08:36;;;;;;;;;;;;;;;;;;5116826;28;20049;-81
2021/12/23 14:11:04;;;;;;;;;;;;;;;;;;5116594;28;20033;-81
2021/12/23 14:13:31;;;;;;;;;;;;;;;;;;5116043;28;20078;-81
2021/12/23 14:15:58;;;;;;;;;;;;;;;;;;5115781;28;20033;-80
2021/12/23 14:18:32;;;;;;;;;;;;;;;;;;5116381;28;20002;-80
2021/12/23 14:23:52;;;;;;;;;;;;;;;;;;5079501;28;19940;-80
2021/12/23 14:26:20;;;;;;;;;;;;;;;;;;5116038;28;20048;-80
2021/12/23 14:28:48;;;;;;;;;;;;;;;;;;5116456;28;19934;-80
2021/12/23 14:31:15;;;;;;;;;;;;;;;;;;5115997;28;20022;-80
2021/12/23 14:33:42;;;;;;;;;;;;;;;;;;5116312;28;20464;-80
2021/12/23 14:36:09;;;;;;;;;;;;;;;;;;5116146;28;19979;-81
2021/12/23 14:38:36;;;;;;;;;;;;;;;;;;5115801;28;20045;-80
2021/12/23 14:41:03;;;;;;;;;;;;;;;;;;5120316;27;20488;-82
2021/12/23 14:43:30;;;;;;;;;;;;;;;;;;5126202;27;20363;-81
2021/12/23 14:45:58;;;;;;;;;;;;;;;;;;5122635;27;19992;-82
2021/12/23 14:48:32;;;;;;;;;;;;;;;;;;5115543;28;19943;-82
2021/12/23 14:51:01;;;;;;;;;;;;;;;;;;5115974;28;19938;-82
2021/12/23 14:53:29;;;;;;;;;;;;;;;;;;5116225;28;20028;-82
2021/12/23 14:55:56;;;;;;;;;;;;;;;;;;5115874;28;20030;-83
2021/12/23 14:58:23;;;;;;;;;;;;;;;;;;5115947;28;20032;-82
2021/12/23 15:00:50;;;;;;;;;;;;;;;;;;5115509;28;20039;-83
2021/12/23 15:03:17;;;;;;;;;;;;;;;;;;5116003;28;19992;-82
2021/12/23 15:05:44;;;;;;;;;;;;;;;;;;5115362;28;19938;-83
2021/12/23 15:08:11;;;;;;;;;;;;;;;;;;5115760;28;19946;-83
2021/12/23 15:10:38;;;;;;;;;;;;;;;;;;5115681;28;20015;-82
2021/12/23 15:13:05;;;;;;;;;;;;;;;;;;5114987;28;20055;-82
2021/12/23 15:15:32;;;;;;;;;;;;;;;;;;5115751;28;20017;-82
2021/12/23 15:18:10;;;;;;;;;;;;;;;;;;5115992;28;19942;-82
2021/12/23 15:20:40;;;;;;;;;;;;;;;;;;5115310;28;19959;-82
2021/12/23 15:23:08;;;;;;;;;;;;;;;;;;5115490;28;19928;-82
2021/12/23 15:25:35;;;;;;;;;;;;;;;;;;5114906;27;20017;-82
2021/12/23 15:28:02;;;;;;;;;;;;;;;;;;5114862;28;20025;-82
2021/12/23 15:30:30;;;;;;;;;;;;;;;;;;5115011;28;20379;-82
2021/12/23 15:32:57;;;;;;;;;;;;;;;;;;5115238;28;20362;-82
2021/12/23 15:35:28;;;;;;;;;;;;;;;;;;5114893;27;19977;-82
2021/12/23 15:37:55;;;;;;;;;;;;;;;;;;5120556;27;20296;-82
2021/12/23 15:40:22;;;;;;;;;;;;;;;;;;5114739;28;20015;-82
2021/12/23 15:42:49;;;;;;;;;;;;;;;;;;5094952;28;20033;-82
2021/12/23 15:45:16;;;;;;;;;;;;;;;;;;5094569;28;20029;-81
2021/12/23 15:47:47;;;;;;;;;;;;;;;;;;5114332;28;20015;-82
2021/12/23 15:50:14;;;;;;;;;;;;;;;;;;5114913;28;19942;-82
2021/12/23 15:52:41;;;;;;;;;;;;;;;;;;5114439;28;20014;-82
2021/12/23 15:55:08;;;;;;;;;;;;;;;;;;5114702;28;20007;-82
2021/12/23 15:57:35;;;;;;;;;;;;;;;;;;5114791;28;19924;-82
2021/12/23 16:00:02;;;;;;;;;;;;;;;;;;5114455;28;19924;-82
2021/12/23 16:02:31;;;;;;;;;;;;;;;;;;5114630;28;19969;-81
2021/12/23 16:07:16;;;;;;;;;;;;;;;;;;5114275;28;19930;-82
2021/12/23 16:07:45;;;;;;;;;;;;;;;;;;5114677;28;19944;-81
2021/12/23 16:10:12;;;;;;;;;;;;;;;;;;5114470;28;19920;-82
2021/12/23 16:12:40;;;;;;;;;;;;;;;;;;5114470;28;20061;-81
2021/12/23 16:15:07;;;;;;;;;;;;;;;;;;5114231;28;19971;-82
2021/12/23 16:17:34;;;;;;;;;;;;;;;;;;5114397;28;20420;-82
2021/12/23 16:20:01;;;;;;;;;;;;;;;;;;5114297;28;20026;-80
2021/12/23 16:22:28;;;;;;;;;;;;;;;;;;5114523;28;19973;-80
2021/12/23 16:24:55;;;;;;;;;;;;;;;;;;5114145;28;19939;-79
2021/12/23 16:27:22;;;;;;;;;;;;;;;;;;5113665;28;20018;-79
2021/12/23 16:29:49;;;;;;;;;;;;;;;;;;5113717;28;19991;-79
2021/12/23 16:32:16;;;;;;;;;;;;;;;;;;5114247;28;19976;-79
2021/12/23 16:34:43;;;;;;;;;;;;;;;;;;5113761;28;19994;-80
2021/12/23 16:37:10;;;;;;;;;;;;;;;;;;5113984;28;20003;-79
2021/12/23 16:39:37;;;;;;;;;;;;;;;;;;5113686;28;20462;-79
2021/12/23 16:42:04;;;;;;;;;;;;;;;;;;5114102;28;20012;-79
2021/12/23 16:44:31;;;;;;;;;;;;;;;;;;5113780;28;20021;-79
2021/12/23 16:46:58;;;;;;;;;;;;;;;;;;5113933;28;20449;-79
2021/12/23 16:49:25;;;;;;;;;;;;;;;;;;5114071;28;20003;-79
2021/12/23 16:51:52;;;;;;;;;;;;;;;;;;5114159;28;19953;-79
2021/12/23 16:54:19;;;;;;;;;;;;;;;;;;5113709;28;19966;-79
2021/12/23 16:59:33;;;;;;;;;;;;;;;;;;5113549;28;19979;-79
2021/12/23 17:02:00;;;;;;;;;;;;;;;;;;5113786;28;19970;-79
2021/12/23 17:04:27;;;;;;;;;;;;;;;;;;5113773;28;19981;-79
2021/12/23 17:06:54;;;;;;;;;;;;;;;;;;5113433;28;19989;-78
2021/12/23 17:09:21;;;;;;;;;;;;;;;;;;5113159;28;19967;-79
2021/12/23 17:11:49;;;;;;;;;;;;;;;;;;5113569;28;20416;-79
2021/12/23 17:14:16;;;;;;;;;;;;;;;;;;5113487;28;20382;-80
2021/12/23 17:16:48;;;;;;;;;;;;;;;;;;5113737;28;19973;-80
2021/12/23 17:19:15;;;;;;;;;;;;;;;;;;5113419;28;19932;-79
2021/12/23 17:21:51;;;;;;;;;;;;;;;;;;5116306;28;20056;-80
2021/12/23 17:24:18;;;;;;;;;;;;;;;;;;5112683;28;20282;-80
2021/12/23 17:26:45;;;;;;;;;;;;;;;;;;5112745;28;20026;-79
2021/12/23 17:29:12;;;;;;;;;;;;;;;;;;5113550;28;20036;-79
2021/12/23 17:31:40;;;;;;;;;;;;;;;;;;5112793;28;20361;-80
2021/12/23 17:34:07;;;;;;;;;;;;;;;;;;5113360;28;20031;-80
2021/12/23 17:36:34;;;;;;;;;;;;;;;;;;5114282;28;19952;-80
2021/12/23 17:39:01;;;;;;;;;;;;;;;;;;5116899;28;19996;-80
2021/12/23 17:41:28;;;;;;;;;;;;;;;;;;5117299;28;19923;-80
2021/12/23 17:43:55;;;;;;;;;;;;;;;;;;5117302;28;20035;-79
2021/12/23 17:46:22;;;;;;;;;;;;;;;;;;5117428;28;19948;-79
2021/12/23 17:48:49;;;;;;;;;;;;;;;;;;5117377;28;20024;-79
2021/12/23 17:51:16;;;;;;;;;;;;;;;;;;5116576;28;19961;-79